Stephen R Warden — WDC6523 — position and weather

sailwx.info

Track history (hours):
 
Tides and Currents Weather Stations Pressure Air Temp Water Temp Dewpoint Dewpoint Depression Visibility Wind Speed Wind Dir Waves Ship Positions

Stephen R Warden

Owner: American Commercial Lines LLC, Jeffersonvile, IN. More information available from US FCC via Universal Licensing System and Coast Guard Vessel Documentation Center.

Last reported at 2018-May-18 17:26 UTC. Time now 2018-May-22 21:37 UTC.
Position N 29°55' W 090°07'.

Length 40 m; draft 3 m.

Type: Towing. MMSI: 367057460.

Date/timePositionNaut miles runAvg speedWind from/ knotsBaromVisibWave heightAir tempDewpointWater temp
2018-May-18 17:26N 29°55' W 090°07'17 3.0
2018-May-18 11:57N 29°60' W 090°26'13 6.8
2018-May-18 10:06N 30°03' W 090°40'1 7.3
2018-May-18 10:00N 30°03' W 090°41'4 7.7
2018-May-18 09:29N 30°01' W 090°45'3 6.7
2018-May-18 09:00N 29°60' W 090°48'32 1.3
2018-May-17 07:55N 29°56' W 090°12'0 0.0
2018-May-17 07:27N 29°56' W 090°12'20 0.6
2018-May-15 21:57N 29°40' W 089°58'44 1.3
2018-May-14 13:10N 30°02' W 090°42'0 0.7
2018-May-14 13:00N 30°02' W 090°42'0 0.3
2018-May-14 12:30N 30°02' W 090°41'4 3.5
2018-May-14 11:16N 30°02' W 090°36'6 3.4
2018-May-14 09:35N 30°03' W 090°30'0 1.2
2018-May-14 09:30N 30°03' W 090°30'1 1.8
2018-May-14 08:59N 30°03' W 090°29'6 3.3
2018-May-14 07:09N 29°59' W 090°24'1 4.2
2018-May-14 06:54N 29°58' W 090°24'1 3.7
2018-May-14 06:30N 29°57' W 090°23'2 3.6
2018-May-14 06:00N 29°56' W 090°21'2 2.9
2018-May-14 05:09N 29°57' W 090°18'1 3.2
2018-May-14 04:44N 29°58' W 090°17'  
2018-May-09 11:44N 30°01' W 090°47'0 0.0
2018-May-09 11:29N 30°01' W 090°47'  
Track history (hours):
 
Tides and Currents Weather Stations Pressure Air Temp Water Temp Dewpoint Dewpoint Depression Visibility Wind Speed Wind Dir Waves Ship Positions

Stephen R Warden

Owner: American Commercial Lines LLC, Jeffersonvile, IN. More information available from US FCC via Universal Licensing System and Coast Guard Vessel Documentation Center.

Last reported at 2018-May-18 17:26 UTC. Time now 2018-May-22 21:37 UTC.
Position N 29°55' W 090°07'.

Length 40 m; draft 3 m.

Type: Towing. MMSI: 367057460.

Date/timePositionNaut miles runAvg speedWind from/ knotsBaromVisibWave heightAir tempDewpointWater temp
2018-May-18 17:26N 29°55' W 090°07'17 3.0
2018-May-18 11:57N 29°60' W 090°26'13 6.8
2018-May-18 10:06N 30°03' W 090°40'1 7.3
2018-May-18 10:00N 30°03' W 090°41'4 7.7
2018-May-18 09:29N 30°01' W 090°45'3 6.7
2018-May-18 09:00N 29°60' W 090°48'32 1.3
2018-May-17 07:55N 29°56' W 090°12'0 0.0
2018-May-17 07:27N 29°56' W 090°12'20 0.6
2018-May-15 21:57N 29°40' W 089°58'44 1.3
2018-May-14 13:10N 30°02' W 090°42'0 0.7
2018-May-14 13:00N 30°02' W 090°42'0 0.3
2018-May-14 12:30N 30°02' W 090°41'4 3.5
2018-May-14 11:16N 30°02' W 090°36'6 3.4
2018-May-14 09:35N 30°03' W 090°30'0 1.2
2018-May-14 09:30N 30°03' W 090°30'1 1.8
2018-May-14 08:59N 30°03' W 090°29'6 3.3
2018-May-14 07:09N 29°59' W 090°24'1 4.2
2018-May-14 06:54N 29°58' W 090°24'1 3.7
2018-May-14 06:30N 29°57' W 090°23'2 3.6
2018-May-14 06:00N 29°56' W 090°21'2 2.9
2018-May-14 05:09N 29°57' W 090°18'1 3.2
2018-May-14 04:44N 29°58' W 090°17'  
2018-May-09 11:44N 30°01' W 090°47'0 0.0
2018-May-09 11:29N 30°01' W 090°47'  

Dump ship's entire track history